Time,TemperatureF,DewpointF,PressureIn,WindDirection,WindDirectionDegrees,WindSpeedMPH,WindSpeedGustMPH,Humidity,HourlyPrecipIn,Conditions,Clouds,dailyrainin,SoftwareType,DateUTC
2013-12-24 00:00:00,59.2,55.3,30.06,North,355,4.0,11.0,87,0.00,,---,0.11,VWS V13.00,2013-12-24 05:00:00,
2013-12-24 00:01:00,59.1,55.2,30.06,NNW,342,4.0,11.0,87,0.00,,---,0.11,VWS V13.00,2013-12-24 05:01:00,
2013-12-24 00:06:00,59.0,55.1,30.06,NNW,337,4.0,11.0,87,0.00,,---,0.00,VWS V13.00,2013-12-24 05:06:00,
2013-12-24 00:11:00,59.0,55.1,30.06,North,355,5.0,11.0,87,0.00,,---,0.00,VWS V13.00,2013-12-24 05:11:00,
2013-12-24 00:16:00,59.0,55.1,30.07,North,355,3.0,11.0,87,0.00,,---,0.00,VWS V13.00,2013-12-24 05:16:00,
2013-12-24 00:21:00,59.0,55.1,30.07,NNE,18,7.0,11.0,87,0.00,,---,0.00,VWS V13.00,2013-12-24 05:21:00,
2013-12-24 00:26:00,59.0,55.1,30.07,WNW,303,1.0,11.0,87,0.00,,---,0.00,VWS V13.00,2013-12-24 05:26:00,
2013-12-24 00:31:00,59.0,55.1,30.07,NW,326,6.0,11.0,87,0.00,,---,0.00,VWS V13.00,2013-12-24 05:31:00,
2013-12-24 00:36:00,59.0,55.1,30.07,NW,323,2.0,8.0,87,0.00,,---,0.00,VWS V13.00,2013-12-24 05:36:00,
2013-12-24 00:41:00,59.0,55.1,30.07,NNW,337,4.0,10.0,87,0.00,,---,0.00,VWS V13.00,2013-12-24 05:41:00,
2013-12-24 00:46:00,58.9,55.0,30.07,NNW,330,3.0,10.0,87,0.00,,---,0.00,VWS V13.00,2013-12-24 05:46:00,
2013-12-24 00:51:00,58.7,54.8,30.07,NW,310,5.0,11.0,87,0.00,,---,0.00,VWS V13.00,2013-12-24 05:51:00,
2013-12-24 00:56:00,58.7,54.8,30.07,NNW,338,2.0,11.0,87,0.00,,---,0.00,VWS V13.00,2013-12-24 05:56:00,
2013-12-24 01:01:00,58.4,54.5,30.07,NE,34,4.0,12.0,87,0.00,,---,0.00,VWS V13.00,2013-12-24 06:01:00,
2013-12-24 01:06:00,57.7,53.9,30.07,North,5,7.0,15.0,87,0.00,,---,0.00,VWS V13.00,2013-12-24 06:06:00,
2013-12-24 01:11:00,56.7,52.9,30.06,NE,46,6.0,20.0,87,0.00,,---,0.00,VWS V13.00,2013-12-24 06:11:00,
2013-12-24 01:16:00,55.6,51.5,30.06,NNE,27,11.0,20.0,86,0.00,,---,0.00,VWS V13.00,2013-12-24 06:16:00,
2013-12-24 01:21:00,54.7,50.9,30.06,NNE,25,8.0,20.0,87,0.01,,---,0.01,VWS V13.00,2013-12-24 06:21:00,
2013-12-24 01:26:00,54.1,50.3,30.06,NNE,29,8.0,20.0,87,0.01,,---,0.01,VWS V13.00,2013-12-24 06:26:00,
2013-12-24 01:31:00,53.7,49.9,30.05,North,9,7.0,20.0,87,0.01,,---,0.01,VWS V13.00,2013-12-24 06:31:00,
2013-12-24 01:36:00,53.2,49.4,30.06,NNE,17,5.0,15.0,87,0.01,,---,0.01,VWS V13.00,2013-12-24 06:36:00,
2013-12-24 01:41:00,52.8,49.0,30.06,NNE,26,8.0,16.0,87,0.01,,---,0.01,VWS V13.00,2013-12-24 06:41:00,
2013-12-24 01:46:00,52.5,48.8,30.06,ENE,58,10.0,18.0,87,0.01,,---,0.01,VWS V13.00,2013-12-24 06:46:00,
2013-12-24 01:51:00,52.4,48.7,30.06,NNE,26,8.0,18.0,87,0.01,,---,0.01,VWS V13.00,2013-12-24 06:51:00,
2013-12-24 01:56:00,52.2,48.5,30.07,NNW,345,6.0,18.0,87,0.01,,---,0.01,VWS V13.00,2013-12-24 06:56:00,
2013-12-24 02:01:00,52.1,48.4,30.07,North,360,8.0,18.0,87,0.01,,---,0.01,VWS V13.00,2013-12-24 07:01:00,
2013-12-24 02:06:00,51.9,48.2,30.07,ENE,62,5.0,14.0,87,0.01,,---,0.01,VWS V13.00,2013-12-24 07:06:00,
2013-12-24 02:11:00,51.8,48.1,30.07,North,5,8.0,14.0,87,0.01,,---,0.01,VWS V13.00,2013-12-24 07:11:00,
2013-12-24 02:16:00,51.8,48.1,30.07,NNE,28,5.0,16.0,87,0.01,,---,0.01,VWS V13.00,2013-12-24 07:16:00,
2013-12-24 02:21:00,51.7,48.0,30.07,NNE,17,7.0,16.0,87,0.01,,---,0.01,VWS V13.00,2013-12-24 07:21:00,
2013-12-24 02:26:00,51.7,48.0,30.06,North,360,4.0,16.0,87,0.02,,---,0.02,VWS V13.00,2013-12-24 07:26:00,
2013-12-24 02:31:00,51.7,48.0,30.07,NNE,13,7.0,16.0,87,0.02,,---,0.02,VWS V13.00,2013-12-24 07:31:00,
2013-12-24 02:36:00,51.6,47.9,30.07,North,9,8.0,12.0,87,0.01,,---,0.02,VWS V13.00,2013-12-24 07:36:00,
2013-12-24 02:41:00,51.6,47.9,30.06,NW,323,6.0,17.0,87,0.01,,---,0.02,VWS V13.00,2013-12-24 07:41:00,
2013-12-24 02:46:00,51.5,47.8,30.07,North,349,5.0,17.0,87,0.01,,---,0.02,VWS V13.00,2013-12-24 07:46:00,
2013-12-24 02:51:00,51.5,47.8,30.07,NNE,28,11.0,17.0,87,0.01,,---,0.03,VWS V13.00,2013-12-24 07:51:00,
2013-12-24 02:56:00,51.4,47.7,30.07,North,355,6.0,18.0,87,0.02,,---,0.03,VWS V13.00,2013-12-24 07:56:00,
2013-12-24 03:01:00,51.3,47.6,30.07,NNE,16,16.0,18.0,87,0.02,,---,0.03,VWS V13.00,2013-12-24 08:01:00,
2013-12-24 03:06:00,51.1,47.4,30.07,NNE,29,11.0,14.0,87,0.03,,---,0.04,VWS V13.00,2013-12-24 08:06:00,
2013-12-24 03:11:00,51.0,47.3,30.07,North,355,5.0,14.0,87,0.03,,---,0.04,VWS V13.00,2013-12-24 08:11:00,
2013-12-24 03:16:00,50.9,47.2,30.06,North,9,6.0,15.0,87,0.03,,---,0.04,VWS V13.00,2013-12-24 08:16:00,
2013-12-24 03:21:00,50.9,47.2,30.07,NNE,17,7.0,15.0,87,0.03,,---,0.04,VWS V13.00,2013-12-24 08:21:00,
2013-12-24 03:26:00,50.7,47.0,30.07,NNE,14,9.0,16.0,87,0.05,,---,0.06,VWS V13.00,2013-12-24 08:26:00,
2013-12-24 03:31:00,50.5,46.8,30.08,NNE,31,9.0,16.0,87,0.05,,---,0.06,VWS V13.00,2013-12-24 08:31:00,
2013-12-24 03:36:00,50.4,46.7,30.08,NNE,22,7.0,13.0,87,0.04,,---,0.06,VWS V13.00,2013-12-24 08:36:00,
2013-12-24 03:41:00,50.0,46.3,30.08,NE,51,6.0,16.0,87,0.05,,---,0.07,VWS V13.00,2013-12-24 08:41:00,
2013-12-24 03:46:00,49.5,45.8,30.07,WNW,297,4.0,16.0,87,0.05,,---,0.07,VWS V13.00,2013-12-24 08:46:00,
2013-12-24 03:51:00,49.2,45.5,30.07,North,350,9.0,17.0,87,0.05,,---,0.07,VWS V13.00,2013-12-24 08:51:00,
2013-12-24 03:56:00,48.9,45.2,30.08,NNE,12,4.0,17.0,87,0.05,,---,0.07,VWS V13.00,2013-12-24 08:56:00,
2013-12-24 04:01:00,48.6,44.9,30.07,ENE,76,5.0,17.0,87,0.05,,---,0.07,VWS V13.00,2013-12-24 09:01:00,
2013-12-24 04:06:00,48.3,44.6,30.07,NNE,18,8.0,14.0,87,0.05,,---,0.08,VWS V13.00,2013-12-24 09:06:00,
2013-12-24 04:11:00,48.1,44.4,30.07,NNE,19,8.0,17.0,87,0.06,,---,0.09,VWS V13.00,2013-12-24 09:11:00,
2013-12-24 04:16:00,47.9,44.2,30.07,NNE,28,9.0,18.0,87,0.07,,---,0.10,VWS V13.00,2013-12-24 09:16:00,
2013-12-24 04:20:00,47.7,44.0,30.07,North,10,7.0,18.0,87,0.09,,---,0.12,VWS V13.00,2013-12-24 09:20:00,
2013-12-24 04:25:00,47.5,43.8,30.06,NE,43,9.0,18.0,87,0.09,,---,0.12,VWS V13.00,2013-12-24 09:25:00,
2013-12-24 04:30:00,47.4,43.7,30.06,NNE,32,8.0,18.0,87,0.09,,---,0.12,VWS V13.00,2013-12-24 09:30:00,
2013-12-24 04:35:00,47.2,43.5,30.07,NW,321,6.0,15.0,87,0.06,,---,0.12,VWS V13.00,2013-12-24 09:35:00,
2013-12-24 04:40:00,47.1,43.4,30.07,NNE,30,13.0,19.0,87,0.06,,---,0.12,VWS V13.00,2013-12-24 09:40:00,
2013-12-24 04:45:00,46.9,43.2,30.06,NW,319,3.0,19.0,87,0.08,,---,0.14,VWS V13.00,2013-12-24 09:45:00,
2013-12-24 04:50:00,46.8,43.1,30.06,NNW,327,5.0,19.0,87,0.08,,---,0.14,VWS V13.00,2013-12-24 09:50:00,
2013-12-24 04:55:00,46.8,43.1,30.06,NNW,344,7.0,19.0,87,0.08,,---,0.14,VWS V13.00,2013-12-24 09:55:00,
2013-12-24 05:00:00,46.7,43.0,30.06,NNE,19,3.0,19.0,87,0.08,,---,0.14,VWS V13.00,2013-12-24 10:00:00,
2013-12-24 05:05:00,46.4,42.8,30.06,North,355,12.0,17.0,87,0.07,,---,0.14,VWS V13.00,2013-12-24 10:05:00,
2013-12-24 05:11:00,46.2,42.5,30.06,NNE,15,7.0,19.0,87,0.07,,---,0.14,VWS V13.00,2013-12-24 10:11:00,
2013-12-24 05:16:00,45.9,42.3,30.07,North,355,3.0,19.0,87,0.07,,---,0.14,VWS V13.00,2013-12-24 10:16:00,
2013-12-24 05:21:00,45.8,42.2,30.07,ENE,77,5.0,19.0,87,0.07,,---,0.14,VWS V13.00,2013-12-24 10:21:00,
2013-12-24 05:26:00,45.7,42.1,30.08,NNE,15,7.0,19.0,87,0.07,,---,0.14,VWS V13.00,2013-12-24 10:26:00,
2013-12-24 05:31:00,45.6,42.0,30.08,NW,325,5.0,19.0,87,0.08,,---,0.15,VWS V13.00,2013-12-24 10:31:00,
2013-12-24 05:36:00,45.6,42.0,30.08,NNW,332,5.0,10.0,87,0.03,,---,0.15,VWS V13.00,2013-12-24 10:36:00,
2013-12-24 05:41:00,45.5,41.9,30.08,North,5,0.0,12.0,87,0.03,,---,0.15,VWS V13.00,2013-12-24 10:41:00,
2013-12-24 05:46:00,45.5,41.9,30.09,North,355,10.0,12.0,87,0.03,,---,0.15,VWS V13.00,2013-12-24 10:46:00,
2013-12-24 05:51:00,45.4,41.8,30.09,North,9,6.0,12.0,87,0.03,,---,0.15,VWS V13.00,2013-12-24 10:51:00,
2013-12-24 05:56:00,45.3,41.7,30.09,NE,40,3.0,12.0,87,0.03,,---,0.15,VWS V13.00,2013-12-24 10:56:00,
2013-12-24 06:01:00,45.2,41.6,30.10,NNW,348,4.0,12.0,87,0.03,,---,0.15,VWS V13.00,2013-12-24 11:01:00,
2013-12-24 06:06:00,45.3,41.7,30.11,North,349,4.0,10.0,87,0.01,,---,0.15,VWS V13.00,2013-12-24 11:06:00,
2013-12-24 06:11:00,45.2,41.6,30.13,NW,318,5.0,11.0,87,0.01,,---,0.15,VWS V13.00,2013-12-24 11:11:00,
2013-12-24 06:16:00,45.2,41.6,30.13,NW,324,7.0,12.0,87,0.02,,---,0.16,VWS V13.00,2013-12-24 11:16:00,
2013-12-24 06:21:00,45.2,41.6,30.13,NW,322,5.0,12.0,87,0.03,,---,0.17,VWS V13.00,2013-12-24 11:21:00,
2013-12-24 06:26:00,45.2,41.6,30.13,North,360,8.0,12.0,87,0.05,,---,0.19,VWS V13.00,2013-12-24 11:26:00,
2013-12-24 06:31:00,45.1,41.5,30.14,NNW,331,4.0,12.0,87,0.05,,---,0.19,VWS V13.00,2013-12-24 11:31:00,
2013-12-24 06:36:00,45.1,41.5,30.13,North,360,9.0,9.0,87,0.04,,---,0.19,VWS V13.00,2013-12-24 11:36:00,
2013-12-24 06:41:00,45.1,41.5,30.13,NNW,338,6.0,12.0,87,0.05,,---,0.20,VWS V13.00,2013-12-24 11:41:00,
2013-12-24 06:46:00,45.0,41.4,30.12,NNE,25,7.0,13.0,87,0.06,,---,0.21,VWS V13.00,2013-12-24 11:46:00,
2013-12-24 06:51:00,45.0,41.4,30.11,NE,53,6.0,13.0,87,0.06,,---,0.21,VWS V13.00,2013-12-24 11:51:00,
2013-12-24 06:56:00,44.9,41.3,30.11,NNE,19,5.0,13.0,87,0.06,,---,0.21,VWS V13.00,2013-12-24 11:56:00,
2013-12-24 07:01:00,44.9,41.3,30.11,North,10,4.0,13.0,87,0.06,,---,0.21,VWS V13.00,2013-12-24 12:01:00,
2013-12-24 07:06:00,44.9,41.3,30.13,NNE,23,3.0,7.0,87,0.06,,---,0.21,VWS V13.00,2013-12-24 12:06:00,
2013-12-24 07:11:00,44.8,41.2,30.15,NNE,18,5.0,11.0,87,0.06,,---,0.21,VWS V13.00,2013-12-24 12:11:00,
2013-12-24 07:16:00,44.7,41.1,30.15,North,351,13.0,13.0,87,0.06,,---,0.21,VWS V13.00,2013-12-24 12:16:00,
2013-12-24 07:20:00,44.6,41.0,30.14,NW,309,3.0,15.0,87,0.06,,---,0.21,VWS V13.00,2013-12-24 12:20:00,
2013-12-24 07:25:00,44.6,41.0,30.15,NNE,13,7.0,15.0,87,0.06,,---,0.21,VWS V13.00,2013-12-24 12:25:00,
2013-12-24 07:30:00,44.6,41.0,30.16,North,355,8.0,15.0,87,0.06,,---,0.21,VWS V13.00,2013-12-24 12:30:00,
2013-12-24 07:35:00,44.6,41.0,30.15,NNW,341,5.0,11.0,87,0.02,,---,0.21,VWS V13.00,2013-12-24 12:35:00,
2013-12-24 07:40:00,44.6,41.0,30.16,NW,320,10.0,15.0,87,0.02,,---,0.21,VWS V13.00,2013-12-24 12:40:00,
2013-12-24 07:45:00,44.6,41.0,30.16,North,355,5.0,15.0,87,0.02,,---,0.21,VWS V13.00,2013-12-24 12:45:00,
2013-12-24 07:50:00,44.3,40.7,30.16,NW,304,3.0,18.0,87,0.02,,---,0.21,VWS V13.00,2013-12-24 12:50:00,
2013-12-24 07:55:00,44.0,40.4,30.16,NW,313,7.0,18.0,87,0.02,,---,0.21,VWS V13.00,2013-12-24 12:55:00,
2013-12-24 08:00:00,43.7,40.1,30.17,North,5,11.0,18.0,87,0.02,,---,0.21,VWS V13.00,2013-12-24 13:00:00,
2013-12-24 08:05:00,43.4,39.8,30.17,NNE,24,4.0,19.0,87,0.00,,---,0.21,VWS V13.00,2013-12-24 13:05:00,
2013-12-24 08:10:00,43.3,39.7,30.16,NNE,29,10.0,19.0,87,0.00,,---,0.21,VWS V13.00,2013-12-24 13:10:00,
2013-12-24 08:15:00,43.1,39.5,30.16,North,355,10.0,19.0,87,0.00,,---,0.21,VWS V13.00,2013-12-24 13:15:00,
2013-12-24 08:20:00,43.1,39.5,30.17,NNW,327,6.0,19.0,87,0.00,,---,0.21,VWS V13.00,2013-12-24 13:20:00,
2013-12-24 08:25:00,43.1,39.5,30.17,NNW,343,3.0,19.0,87,0.00,,---,0.21,VWS V13.00,2013-12-24 13:25:00,
2013-12-24 08:30:00,43.1,39.5,30.17,NW,323,10.0,19.0,87,0.00,,---,0.21,VWS V13.00,2013-12-24 13:30:00,
2013-12-24 08:35:00,42.8,39.2,30.18,NNW,335,10.0,15.0,87,0.00,,---,0.21,VWS V13.00,2013-12-24 13:35:00,
2013-12-24 08:40:00,42.7,39.1,30.18,NW,314,9.0,15.0,87,0.00,,---,0.21,VWS V13.00,2013-12-24 13:40:00,
2013-12-24 08:45:00,42.5,38.9,30.18,NNE,25,12.0,15.0,87,0.00,,---,0.21,VWS V13.00,2013-12-24 13:45:00,
2013-12-24 08:50:00,42.5,38.9,30.18,NNW,327,4.0,15.0,87,0.00,,---,0.21,VWS V13.00,2013-12-24 13:50:00,
2013-12-24 08:55:00,42.5,38.9,30.18,North,5,3.0,15.0,87,0.00,,---,0.21,VWS V13.00,2013-12-24 13:55:00,
2013-12-24 09:01:00,42.5,38.9,30.19,NNW,335,3.0,15.0,87,0.00,,---,0.21,VWS V13.00,2013-12-24 14:01:00,
2013-12-24 09:06:00,42.5,38.9,30.19,NW,323,9.0,17.0,87,0.00,,---,0.21,VWS V13.00,2013-12-24 14:06:00,
2013-12-24 09:11:00,42.5,38.9,30.20,North,5,5.0,17.0,87,0.00,,---,0.21,VWS V13.00,2013-12-24 14:11:00,
2013-12-24 09:16:00,42.5,38.9,30.20,NNE,25,4.0,17.0,87,0.00,,---,0.21,VWS V13.00,2013-12-24 14:16:00,
2013-12-24 09:21:00,42.5,38.9,30.20,NW,313,4.0,17.0,87,0.00,,---,0.21,VWS V13.00,2013-12-24 14:21:00,
2013-12-24 09:26:00,42.5,38.9,30.19,NNW,348,9.0,17.0,87,0.00,,---,0.21,VWS V13.00,2013-12-24 14:26:00,
2013-12-24 09:31:00,42.6,39.0,30.19,North,355,7.0,17.0,87,0.00,,---,0.21,VWS V13.00,2013-12-24 14:31:00,
2013-12-24 09:36:00,42.5,38.9,30.19,NW,324,8.0,11.0,87,0.00,,---,0.21,VWS V13.00,2013-12-24 14:36:00,
2013-12-24 09:41:00,42.5,38.9,30.20,NNW,343,8.0,13.0,87,0.00,,---,0.21,VWS V13.00,2013-12-24 14:41:00,
2013-12-24 09:46:00,42.4,38.8,30.20,NW,313,1.0,14.0,87,0.00,,---,0.21,VWS V13.00,2013-12-24 14:46:00,
2013-12-24 09:51:00,42.0,38.4,30.20,North,355,8.0,14.0,87,0.00,,---,0.21,VWS V13.00,2013-12-24 14:51:00,
2013-12-24 09:56:00,41.8,38.2,30.21,NNE,13,5.0,14.0,87,0.00,,---,0.21,VWS V13.00,2013-12-24 14:56:00,
2013-12-24 10:01:00,41.6,38.0,30.21,NNW,337,7.0,15.0,87,0.00,,---,0.21,VWS V13.00,2013-12-24 15:01:00,
2013-12-24 10:06:00,41.6,38.0,30.21,NNW,336,9.0,15.0,87,0.00,,---,0.21,VWS V13.00,2013-12-24 15:06:00,
2013-12-24 10:11:00,41.5,37.9,30.21,North,5,2.0,15.0,87,0.00,,---,0.21,VWS V13.00,2013-12-24 15:11:00,
2013-12-24 10:16:00,41.5,37.9,30.21,NW,324,5.0,15.0,87,0.00,,---,0.21,VWS V13.00,2013-12-24 15:16:00,
2013-12-24 10:21:00,41.7,38.1,30.21,NW,325,12.0,16.0,87,0.00,,---,0.21,VWS V13.00,2013-12-24 15:21:00,
2013-12-24 10:26:00,42.2,38.6,30.20,NNW,339,4.0,16.0,87,0.00,,---,0.21,VWS V13.00,2013-12-24 15:26:00,
2013-12-24 10:31:00,42.5,38.9,30.20,NW,322,4.0,16.0,87,0.00,,---,0.21,VWS V13.00,2013-12-24 15:31:00,
2013-12-24 10:36:00,42.9,39.3,30.20,NW,325,12.0,14.0,87,0.00,,---,0.21,VWS V13.00,2013-12-24 15:36:00,
2013-12-24 10:41:00,43.1,39.5,30.20,NW,321,13.0,14.0,87,0.00,,---,0.21,VWS V13.00,2013-12-24 15:41:00,
2013-12-24 10:46:00,43.2,39.6,30.21,NNW,340,6.0,16.0,87,0.00,,---,0.21,VWS V13.00,2013-12-24 15:46:00,
2013-12-24 10:51:00,43.3,39.7,30.21,North,355,7.0,17.0,87,0.00,,---,0.21,VWS V13.00,2013-12-24 15:51:00,
2013-12-24 10:56:00,43.4,39.8,30.20,NNW,348,4.0,17.0,87,0.00,,---,0.21,VWS V13.00,2013-12-24 15:56:00,
2013-12-24 11:01:00,43.5,39.9,30.21,NW,306,3.0,17.0,87,0.00,,---,0.21,VWS V13.00,2013-12-24 16:01:00,
2013-12-24 11:06:00,43.8,40.2,30.21,NNE,29,6.0,14.0,87,0.00,,---,0.21,VWS V13.00,2013-12-24 16:06:00,
2013-12-24 11:11:00,43.6,40.0,30.21,North,355,3.0,14.0,87,0.00,,---,0.21,VWS V13.00,2013-12-24 16:11:00,
2013-12-24 11:16:00,43.3,39.7,30.21,NNW,331,5.0,14.0,87,0.00,,---,0.21,VWS V13.00,2013-12-24 16:16:00,
2013-12-24 11:21:00,43.3,39.7,30.21,NNE,13,7.0,14.0,87,0.00,,---,0.21,VWS V13.00,2013-12-24 16:21:00,
2013-12-24 11:26:00,43.3,39.7,30.22,NNW,332,14.0,14.0,87,0.00,,---,0.21,VWS V13.00,2013-12-24 16:26:00,
2013-12-24 11:31:00,43.4,39.8,30.21,North,355,5.0,14.0,87,0.00,,---,0.21,VWS V13.00,2013-12-24 16:31:00,
2013-12-24 11:36:00,43.8,40.2,30.21,NNW,328,6.0,13.0,87,0.00,,---,0.21,VWS V13.00,2013-12-24 16:36:00,
2013-12-24 11:41:00,44.0,40.4,30.20,North,5,8.0,14.0,87,0.00,,---,0.21,VWS V13.00,2013-12-24 16:41:00,
2013-12-24 11:46:00,44.2,40.6,30.20,NNW,346,7.0,14.0,87,0.00,,---,0.21,VWS V13.00,2013-12-24 16:46:00,
2013-12-24 11:51:00,44.3,40.7,30.20,NW,319,4.0,14.0,87,0.00,,---,0.21,VWS V13.00,2013-12-24 16:51:00,
2013-12-24 11:56:00,44.2,40.6,30.20,NW,311,4.0,14.0,87,0.00,,---,0.21,VWS V13.00,2013-12-24 16:56:00,
2013-12-24 12:01:00,43.9,40.0,30.20,NW,305,4.0,14.0,86,0.00,,---,0.21,VWS V13.00,2013-12-24 17:01:00,
2013-12-24 12:06:00,43.7,40.1,30.20,North,5,6.0,15.0,87,0.00,,---,0.21,VWS V13.00,2013-12-24 17:06:00,
2013-12-24 12:11:00,43.8,40.2,30.19,North,355,3.0,15.0,87,0.00,,---,0.21,VWS V13.00,2013-12-24 17:11:00,
2013-12-24 12:16:00,44.3,40.7,30.19,NNW,338,3.0,15.0,87,0.00,,---,0.21,VWS V13.00,2013-12-24 17:16:00,
2013-12-24 12:21:00,44.9,41.3,30.19,NNW,348,2.0,15.0,87,0.00,,---,0.21,VWS V13.00,2013-12-24 17:21:00,
2013-12-24 12:26:00,45.5,41.9,30.19,NW,309,0.0,15.0,87,0.00,,---,0.21,VWS V13.00,2013-12-24 17:26:00,
2013-12-24 12:31:00,45.9,42.0,30.19,NNW,329,5.0,15.0,86,0.00,,---,0.21,VWS V13.00,2013-12-24 17:31:00,
2013-12-24 12:36:00,46.0,42.0,30.19,NE,39,6.0,12.0,86,0.00,,---,0.21,VWS V13.00,2013-12-24 17:36:00,
2013-12-24 12:41:00,46.2,42.2,30.19,North,355,8.0,12.0,86,0.00,,---,0.21,VWS V13.00,2013-12-24 17:41:00,
2013-12-24 12:46:00,46.5,42.5,30.18,NW,324,7.0,12.0,86,0.00,,---,0.21,VWS V13.00,2013-12-24 17:46:00,
2013-12-24 12:51:00,46.6,42.6,30.18,NW,325,2.0,12.0,86,0.00,,---,0.21,VWS V13.00,2013-12-24 17:51:00,
2013-12-24 12:56:00,46.7,42.7,30.19,North,9,3.0,12.0,86,0.00,,---,0.21,VWS V13.00,2013-12-24 17:56:00,
2013-12-24 13:01:00,46.8,42.8,30.19,North,5,7.0,12.0,86,0.00,,---,0.21,VWS V13.00,2013-12-24 18:01:00,
2013-12-24 13:06:00,47.0,43.0,30.19,NW,326,6.0,10.0,86,0.00,,---,0.21,VWS V13.00,2013-12-24 18:06:00,
2013-12-24 13:11:00,47.6,43.6,30.18,WNW,291,2.0,10.0,86,0.00,,---,0.21,VWS V13.00,2013-12-24 18:11:00,
2013-12-24 13:15:00,48.3,44.3,30.19,NW,322,3.0,13.0,86,0.00,,---,0.21,VWS V13.00,2013-12-24 18:15:00,
2013-12-24 13:20:00,48.6,44.6,30.19,West,263,6.0,13.0,86,0.00,,---,0.21,VWS V13.00,2013-12-24 18:20:00,
2013-12-24 13:25:00,48.6,44.6,30.19,NW,313,5.0,16.0,86,0.00,,---,0.21,VWS V13.00,2013-12-24 18:25:00,
2013-12-24 13:30:00,48.7,44.7,30.19,North,355,5.0,16.0,86,0.00,,---,0.21,VWS V13.00,2013-12-24 18:30:00,
2013-12-24 13:35:00,48.5,44.5,30.19,NNW,338,7.0,12.0,86,0.00,,---,0.21,VWS V13.00,2013-12-24 18:35:00,
2013-12-24 13:40:00,48.3,44.3,30.19,NNW,342,7.0,13.0,86,0.00,,---,0.21,VWS V13.00,2013-12-24 18:40:00,
2013-12-24 13:45:00,47.9,43.9,30.19,NNE,13,4.0,15.0,86,0.00,,---,0.21,VWS V13.00,2013-12-24 18:45:00,
2013-12-24 13:50:00,48.1,44.1,30.19,NW,317,6.0,15.0,86,0.00,,---,0.21,VWS V13.00,2013-12-24 18:50:00,
2013-12-24 13:55:00,48.5,44.5,30.20,NW,317,11.0,15.0,86,0.00,,---,0.21,VWS V13.00,2013-12-24 18:55:00,
2013-12-24 14:00:00,48.3,44.0,30.20,NW,326,3.0,16.0,85,0.00,,---,0.21,VWS V13.00,2013-12-24 19:00:00,
2013-12-24 14:05:00,48.3,44.0,30.20,NNW,334,4.0,13.0,85,0.00,,---,0.21,VWS V13.00,2013-12-24 19:05:00,
2013-12-24 14:10:00,48.4,44.1,30.21,NNW,336,6.0,13.0,85,0.00,,---,0.21,VWS V13.00,2013-12-24 19:10:00,
2013-12-24 14:15:00,48.1,43.8,30.21,NW,318,2.0,13.0,85,0.00,,---,0.21,VWS V13.00,2013-12-24 19:15:00,
2013-12-24 14:20:00,47.9,43.6,30.21,WNW,292,7.0,13.0,85,0.00,,---,0.21,VWS V13.00,2013-12-24 19:20:00,
2013-12-24 14:25:00,47.8,43.5,30.21,WNW,303,5.0,13.0,85,0.00,,---,0.21,VWS V13.00,2013-12-24 19:25:00,
2013-12-24 14:30:00,47.7,43.4,30.21,NW,305,11.0,15.0,85,0.00,,---,0.21,VWS V13.00,2013-12-24 19:30:00,
2013-12-24 14:35:00,47.6,43.3,30.21,NW,325,8.0,12.0,85,0.00,,---,0.21,VWS V13.00,2013-12-24 19:35:00,
2013-12-24 14:40:00,47.4,43.1,30.21,NNW,333,11.0,15.0,85,0.00,,---,0.21,VWS V13.00,2013-12-24 19:40:00,
2013-12-24 14:45:00,47.2,42.9,30.21,NW,315,3.0,18.0,85,0.00,,---,0.21,VWS V13.00,2013-12-24 19:45:00,
2013-12-24 14:50:00,47.0,42.7,30.21,NW,309,4.0,18.0,85,0.00,,---,0.21,VWS V13.00,2013-12-24 19:50:00,
2013-12-24 14:55:00,47.0,42.7,30.22,West,277,9.0,18.0,85,0.00,,---,0.21,VWS V13.00,2013-12-24 19:55:00,
2013-12-24 15:01:00,46.9,42.6,30.22,NNW,333,5.0,18.0,85,0.00,,---,0.21,VWS V13.00,2013-12-24 20:01:00,
2013-12-24 15:06:00,46.8,42.5,30.22,North,5,10.0,13.0,85,0.00,,---,0.21,VWS V13.00,2013-12-24 20:06:00,
2013-12-24 15:11:00,46.6,42.3,30.22,North,355,7.0,13.0,85,0.00,,---,0.21,VWS V13.00,2013-12-24 20:11:00,
2013-12-24 15:16:00,46.7,42.4,30.22,NW,325,8.0,13.0,85,0.00,,---,0.21,VWS V13.00,2013-12-24 20:16:00,
2013-12-24 15:21:00,46.7,42.4,30.22,NW,313,7.0,13.0,85,0.00,,---,0.21,VWS V13.00,2013-12-24 20:21:00,
2013-12-24 15:26:00,46.6,42.3,30.22,NW,308,7.0,13.0,85,0.00,,---,0.21,VWS V13.00,2013-12-24 20:26:00,
2013-12-24 15:31:00,46.7,42.4,30.22,NNW,332,6.0,16.0,85,0.00,,---,0.21,VWS V13.00,2013-12-24 20:31:00,
2013-12-24 15:36:00,46.5,41.9,30.22,NNW,331,7.0,13.0,84,0.00,,---,0.21,VWS V13.00,2013-12-24 20:36:00,
2013-12-24 15:41:00,46.4,41.8,30.23,North,355,7.0,16.0,84,0.00,,---,0.21,VWS V13.00,2013-12-24 20:41:00,
2013-12-24 15:46:00,46.3,41.7,30.23,NW,309,8.0,16.0,84,0.00,,---,0.21,VWS V13.00,2013-12-24 20:46:00,
2013-12-24 15:51:00,46.2,41.6,30.23,WNW,300,6.0,16.0,84,0.00,,---,0.21,VWS V13.00,2013-12-24 20:51:00,
2013-12-24 15:56:00,46.0,41.4,30.24,NNW,327,3.0,16.0,84,0.00,,---,0.21,VWS V13.00,2013-12-24 20:56:00,
2013-12-24 16:01:00,45.9,41.3,30.24,NNW,333,8.0,16.0,84,0.00,,---,0.21,VWS V13.00,2013-12-24 21:01:00,
2013-12-24 16:06:00,45.7,41.2,30.24,North,355,2.0,13.0,84,0.00,,---,0.21,VWS V13.00,2013-12-24 21:06:00,
2013-12-24 16:11:00,45.4,40.9,30.24,NW,316,3.0,13.0,84,0.00,,---,0.21,VWS V13.00,2013-12-24 21:11:00,
2013-12-24 16:16:00,45.1,40.6,30.25,NNW,343,1.0,14.0,84,0.00,,---,0.21,VWS V13.00,2013-12-24 21:16:00,
2013-12-24 16:21:00,45.0,40.5,30.25,North,9,1.0,14.0,84,0.00,,---,0.21,VWS V13.00,2013-12-24 21:21:00,
2013-12-24 16:26:00,44.9,40.4,30.25,NNW,327,12.0,15.0,84,0.00,,---,0.21,VWS V13.00,2013-12-24 21:26:00,
2013-12-24 16:31:00,44.6,40.1,30.25,NW,320,5.0,15.0,84,0.00,,---,0.21,VWS V13.00,2013-12-24 21:31:00,
2013-12-24 16:36:00,44.4,39.9,30.25,North,355,10.0,11.0,84,0.00,,---,0.21,VWS V13.00,2013-12-24 21:36:00,
2013-12-24 16:40:00,44.2,39.7,30.26,North,355,6.0,12.0,84,0.00,,---,0.21,VWS V13.00,2013-12-24 21:40:00,
2013-12-24 16:45:00,44.0,39.5,30.26,NNW,336,7.0,12.0,84,0.00,,---,0.21,VWS V13.00,2013-12-24 21:45:00,
2013-12-24 16:50:00,43.9,39.4,30.26,North,355,5.0,12.0,84,0.00,,---,0.21,VWS V13.00,2013-12-24 21:50:00,
2013-12-24 16:55:00,43.7,39.2,30.27,NNW,328,3.0,12.0,84,0.00,,---,0.21,VWS V13.00,2013-12-24 21:55:00,
2013-12-24 17:00:00,43.5,39.0,30.27,North,360,7.0,12.0,84,0.00,,---,0.21,VWS V13.00,2013-12-24 22:00:00,
2013-12-24 17:05:00,43.3,38.8,30.27,North,5,6.0,12.0,84,0.00,,---,0.21,VWS V13.00,2013-12-24 22:05:00,
2013-12-24 17:10:00,43.1,38.6,30.27,North,355,5.0,12.0,84,0.00,,---,0.21,VWS V13.00,2013-12-24 22:10:00,
2013-12-24 17:15:00,43.0,38.5,30.28,NNW,346,3.0,12.0,84,0.00,,---,0.21,VWS V13.00,2013-12-24 22:15:00,
2013-12-24 17:20:00,42.8,38.3,30.28,NNE,30,3.0,12.0,84,0.00,,---,0.21,VWS V13.00,2013-12-24 22:20:00,
2013-12-24 17:25:00,42.6,38.1,30.28,North,360,8.0,12.0,84,0.00,,---,0.21,VWS V13.00,2013-12-24 22:25:00,
2013-12-24 17:30:00,42.4,37.9,30.28,NW,318,7.0,12.0,84,0.00,,---,0.21,VWS V13.00,2013-12-24 22:30:00,
2013-12-24 17:35:00,42.3,37.8,30.29,North,9,7.0,9.0,84,0.00,,---,0.21,VWS V13.00,2013-12-24 22:35:00,
2013-12-24 17:40:00,42.2,37.7,30.30,NNW,342,2.0,9.0,84,0.00,,---,0.21,VWS V13.00,2013-12-24 22:40:00,
2013-12-24 17:45:00,42.0,37.5,30.30,NNW,328,6.0,9.0,84,0.00,,---,0.21,VWS V13.00,2013-12-24 22:45:00,
2013-12-24 17:50:00,41.9,37.4,30.30,NNW,331,4.0,9.0,84,0.00,,---,0.21,VWS V13.00,2013-12-24 22:50:00,
2013-12-24 17:55:00,41.8,37.3,30.30,North,355,2.0,9.0,84,0.00,,---,0.21,VWS V13.00,2013-12-24 22:55:00,
2013-12-24 18:00:00,41.6,37.1,30.31,NNW,334,4.0,9.0,84,0.00,,---,0.21,VWS V13.00,2013-12-24 23:00:00,
2013-12-24 18:05:00,41.5,37.0,30.31,North,351,2.0,6.0,84,0.00,,---,0.21,VWS V13.00,2013-12-24 23:05:00,
2013-12-24 18:10:00,41.4,36.9,30.31,NNW,337,0.0,7.0,84,0.00,,---,0.21,VWS V13.00,2013-12-24 23:10:00,
2013-12-24 18:15:00,41.3,36.8,30.32,North,350,3.0,7.0,84,0.00,,---,0.21,VWS V13.00,2013-12-24 23:15:00,
2013-12-24 18:20:00,41.2,36.7,30.32,NW,318,4.0,7.0,84,0.00,,---,0.21,VWS V13.00,2013-12-24 23:20:00,
2013-12-24 18:25:00,41.1,36.6,30.32,NNW,333,4.0,9.0,84,0.00,,---,0.21,VWS V13.00,2013-12-24 23:25:00,
2013-12-24 18:30:00,41.0,36.5,30.33,NNW,338,3.0,9.0,84,0.00,,---,0.21,VWS V13.00,2013-12-24 23:30:00,
2013-12-24 18:35:00,40.9,36.5,30.33,North,355,6.0,8.0,84,0.00,,---,0.21,VWS V13.00,2013-12-24 23:35:00,
2013-12-24 18:40:00,40.8,36.3,30.33,NNW,336,5.0,8.0,84,0.00,,---,0.21,VWS V13.00,2013-12-24 23:40:00,
2013-12-24 18:45:00,40.7,36.2,30.34,North,355,7.0,8.0,84,0.00,,---,0.21,VWS V13.00,2013-12-24 23:45:00,
2013-12-24 18:50:00,40.6,36.2,30.34,NNW,338,5.0,9.0,84,0.00,,---,0.21,VWS V13.00,2013-12-24 23:50:00,
2013-12-24 18:55:00,40.5,36.0,30.34,NW,324,8.0,10.0,84,0.00,,---,0.21,VWS V13.00,2013-12-24 23:55:00,
2013-12-24 19:00:00,40.4,36.0,30.34,NNW,343,4.0,10.0,84,0.00,,---,0.21,VWS V13.00,2013-12-25 00:00:00,
2013-12-24 19:05:00,40.3,35.9,30.35,WNW,302,0.0,8.0,84,0.00,,---,0.21,VWS V13.00,2013-12-25 00:05:00,
2013-12-24 19:10:00,40.2,35.8,30.35,North,11,3.0,9.0,84,0.00,,---,0.21,VWS V13.00,2013-12-25 00:10:00,
2013-12-24 19:15:00,40.1,35.7,30.35,NW,320,4.0,9.0,84,0.00,,---,0.21,VWS V13.00,2013-12-25 00:15:00,
2013-12-24 19:20:00,40.0,35.6,30.35,NW,318,4.0,9.0,84,0.00,,---,0.21,VWS V13.00,2013-12-25 00:20:00,
2013-12-24 19:25:00,39.8,35.4,30.35,NNW,333,9.0,9.0,84,0.00,,---,0.21,VWS V13.00,2013-12-25 00:25:00,
2013-12-24 19:30:00,39.7,35.3,30.35,NNW,331,2.0,9.0,84,0.00,,---,0.21,VWS V13.00,2013-12-25 00:30:00,
2013-12-24 19:35:00,39.6,35.2,30.36,NNW,337,4.0,7.0,84,0.00,,---,0.21,VWS V13.00,2013-12-25 00:35:00,
2013-12-24 19:40:00,39.6,35.2,30.36,North,355,1.0,7.0,84,0.00,,---,0.21,VWS V13.00,2013-12-25 00:40:00,
2013-12-24 19:45:00,39.5,35.1,30.36,North,5,4.0,7.0,84,0.00,,---,0.21,VWS V13.00,2013-12-25 00:45:00,
2013-12-24 19:50:00,39.4,35.0,30.36,NNW,337,5.0,9.0,84,0.00,,---,0.21,VWS V13.00,2013-12-25 00:50:00,
2013-12-24 19:55:00,39.3,34.9,30.37,NNW,340,0.0,9.0,84,0.00,,---,0.21,VWS V13.00,2013-12-25 00:55:00,
2013-12-24 20:00:00,39.3,34.9,30.37,North,355,3.0,9.0,84,0.00,,---,0.21,VWS V13.00,2013-12-25 01:00:00,
2013-12-24 20:05:00,39.2,34.8,30.37,North,355,0.0,4.0,84,0.00,,---,0.21,VWS V13.00,2013-12-25 01:05:00,
2013-12-24 20:10:00,39.0,34.6,30.37,North,350,4.0,5.0,84,0.00,,---,0.21,VWS V13.00,2013-12-25 01:10:00,
2013-12-24 20:15:00,38.9,34.5,30.37,NW,317,6.0,6.0,84,0.00,,---,0.21,VWS V13.00,2013-12-25 01:15:00,
2013-12-24 20:20:00,38.9,34.5,30.38,North,350,3.0,6.0,84,0.00,,---,0.21,VWS V13.00,2013-12-25 01:20:00,
2013-12-24 20:25:00,38.8,34.4,30.37,North,349,5.0,8.0,84,0.00,,---,0.21,VWS V13.00,2013-12-25 01:25:00,
2013-12-24 20:30:00,38.8,34.4,30.37,NNW,341,2.0,8.0,84,0.00,,---,0.21,VWS V13.00,2013-12-25 01:30:00,
2013-12-24 20:35:00,38.7,34.3,30.38,North,5,2.0,5.0,84,0.00,,---,0.21,VWS V13.00,2013-12-25 01:35:00,
2013-12-24 20:40:00,38.7,34.3,30.38,North,360,6.0,7.0,84,0.00,,---,0.21,VWS V13.00,2013-12-25 01:40:00,
2013-12-24 20:45:00,38.6,34.2,30.38,North,355,0.0,8.0,84,0.00,,---,0.21,VWS V13.00,2013-12-25 01:45:00,
2013-12-24 20:50:00,38.6,34.2,30.38,NNE,13,2.0,8.0,84,0.00,,---,0.21,VWS V13.00,2013-12-25 01:50:00,
2013-12-24 20:55:00,38.5,34.1,30.38,NNW,338,3.0,8.0,84,0.00,,---,0.21,VWS V13.00,2013-12-25 01:55:00,
2013-12-24 21:00:00,38.4,34.0,30.38,North,5,3.0,10.0,84,0.00,,---,0.21,VWS V13.00,2013-12-25 02:00:00,
2013-12-24 21:05:00,38.4,34.0,30.38,NNW,336,5.0,8.0,84,0.00,,---,0.21,VWS V13.00,2013-12-25 02:05:00,
2013-12-24 21:10:00,38.3,33.9,30.38,NNW,344,6.0,8.0,84,0.00,,---,0.21,VWS V13.00,2013-12-25 02:10:00,
2013-12-24 21:15:00,38.3,33.9,30.38,NNE,27,2.0,8.0,84,0.00,,---,0.21,VWS V13.00,2013-12-25 02:15:00,
2013-12-24 21:20:00,38.2,33.8,30.38,North,355,4.0,9.0,84,0.00,,---,0.21,VWS V13.00,2013-12-25 02:20:00,
2013-12-24 21:25:00,38.1,33.7,30.39,NNE,17,2.0,9.0,84,0.00,,---,0.21,VWS V13.00,2013-12-25 02:25:00,
2013-12-24 21:30:00,38.0,33.6,30.39,North,355,4.0,9.0,84,0.00,,---,0.21,VWS V13.00,2013-12-25 02:30:00,
2013-12-24 21:35:00,37.8,33.4,30.39,North,355,3.0,6.0,84,0.00,,---,0.21,VWS V13.00,2013-12-25 02:35:00,
2013-12-24 21:40:00,37.7,33.3,30.39,NNE,19,1.0,6.0,84,0.00,,---,0.21,VWS V13.00,2013-12-25 02:40:00,
2013-12-24 21:45:00,37.6,33.2,30.39,NNW,346,3.0,6.0,84,0.00,,---,0.21,VWS V13.00,2013-12-25 02:45:00,
2013-12-24 21:50:00,37.5,33.1,30.39,NNW,332,2.0,6.0,84,0.00,,---,0.21,VWS V13.00,2013-12-25 02:50:00,
2013-12-24 21:55:00,37.3,32.9,30.39,North,351,3.0,6.0,84,0.00,,---,0.21,VWS V13.00,2013-12-25 02:55:00,
2013-12-24 22:00:00,37.2,32.8,30.40,North,360,1.0,6.0,84,0.00,,---,0.21,VWS V13.00,2013-12-25 03:00:00,
2013-12-24 22:05:00,37.0,32.6,30.40,North,360,2.0,5.0,84,0.00,,---,0.21,VWS V13.00,2013-12-25 03:05:00,
2013-12-24 22:10:00,36.9,32.5,30.40,NW,314,3.0,7.0,84,0.00,,---,0.21,VWS V13.00,2013-12-25 03:10:00,
2013-12-24 22:15:00,36.8,32.4,30.40,NNW,340,0.0,7.0,84,0.00,,---,0.21,VWS V13.00,2013-12-25 03:15:00,
2013-12-24 22:20:00,36.7,32.3,30.40,North,5,1.0,7.0,84,0.00,,---,0.21,VWS V13.00,2013-12-25 03:20:00,
2013-12-24 22:25:00,36.7,32.3,30.40,NNW,340,3.0,7.0,84,0.00,,---,0.21,VWS V13.00,2013-12-25 03:25:00,
2013-12-24 22:30:00,36.7,32.3,30.40,NNW,332,3.0,7.0,84,0.00,,---,0.21,VWS V13.00,2013-12-25 03:30:00,
2013-12-24 22:35:00,36.7,32.3,30.40,NNW,329,4.0,8.0,84,0.00,,---,0.21,VWS V13.00,2013-12-25 03:35:00,
2013-12-24 22:40:00,36.8,32.4,30.40,NNW,338,2.0,8.0,84,0.00,,---,0.21,VWS V13.00,2013-12-25 03:40:00,
2013-12-24 22:45:00,36.7,32.3,30.40,NW,309,9.0,9.0,84,0.00,,---,0.21,VWS V13.00,2013-12-25 03:45:00,
2013-12-24 22:50:00,36.6,32.2,30.40,NNE,23,8.0,12.0,84,0.00,,---,0.21,VWS V13.00,2013-12-25 03:50:00,
2013-12-24 22:55:00,36.6,32.2,30.40,North,5,6.0,14.0,84,0.00,,---,0.21,VWS V13.00,2013-12-25 03:55:00,
2013-12-24 23:00:00,36.6,32.2,30.41,NNW,345,8.0,14.0,84,0.00,,---,0.21,VWS V13.00,2013-12-25 04:00:00,
2013-12-24 23:05:00,36.6,32.2,30.41,North,360,5.0,11.0,84,0.00,,---,0.21,VWS V13.00,2013-12-25 04:05:00,
2013-12-24 23:10:00,36.6,32.2,30.41,NNE,27,4.0,14.0,84,0.00,,---,0.21,VWS V13.00,2013-12-25 04:10:00,
2013-12-24 23:15:00,36.5,32.1,30.41,North,360,5.0,16.0,84,0.00,,---,0.21,VWS V13.00,2013-12-25 04:15:00,
2013-12-24 23:20:00,36.5,32.1,30.41,NNW,339,3.0,16.0,84,0.00,,---,0.21,VWS V13.00,2013-12-25 04:20:00,
2013-12-24 23:25:00,36.4,32.0,30.41,NW,322,4.0,16.0,84,0.00,,---,0.21,VWS V13.00,2013-12-25 04:25:00,
2013-12-24 23:30:00,36.3,31.9,30.41,North,351,4.0,16.0,84,0.00,,---,0.21,VWS V13.00,2013-12-25 04:30:00,
2013-12-24 23:35:00,36.2,31.5,30.42,North,355,4.0,10.0,83,0.00,,---,0.21,VWS V13.00,2013-12-25 04:35:00,
2013-12-24 23:40:00,36.0,31.4,30.41,NW,319,10.0,16.0,83,0.00,,---,0.21,VWS V13.00,2013-12-25 04:40:00,
2013-12-24 23:45:00,35.8,31.1,30.42,North,355,6.0,16.0,83,0.00,,---,0.21,VWS V13.00,2013-12-25 04:45:00,
2013-12-24 23:50:00,35.6,31.0,30.41,NW,317,9.0,16.0,83,0.00,,---,0.21,VWS V13.00,2013-12-25 04:50:00,
2013-12-24 23:55:00,35.5,30.9,30.42,North,5,3.0,17.0,83,0.00,,---,0.21,VWS V13.00,2013-12-25 04:55:00,